Duhail — C6WF6 — position and weather

sailwx.info

Track history (hours):
 
Tides and Currents Weather Stations Pressure Air Temp Water Temp Dewpoint Dewpoint Depression Visibility Wind Speed Wind Dir Waves Ship Positions

Duhail

Last reported at 2018-Apr-08 15:56 UTC. Time now 2018-Apr-27 05:07 UTC.
Position N 17°52' E 057°16'.
Warning: this ship's position is 18 days out of date.

Length 315 m; draft 9.5 m.

Type: Tanker. MMSI: 309599000.

Date/timePositionNaut miles runAvg speedWind from/ knotsBaromVisibWave heightAir tempDewpointWater temp
2018-Apr-08 15:56N 17°52' E 057°16'717.2
2018-Apr-08 15:30N 17°47' E 057°11'1117.1
2018-Apr-08 14:53N 17°39' E 057°03'716.9
2018-Apr-08 14:29N 17°35' E 056°58'917.0
2018-Apr-08 13:58N 17°29' E 056°51'817.1
2018-Apr-08 13:30N 17°24' E 056°44'817.1
2018-Apr-08 13:00N 17°19' E 056°37'917.0
2018-Apr-08 12:29N 17°13' E 056°30'918.6
2018-Apr-08 12:00N 17°07' E 056°23'  
2018-Apr-02 15:02N 31°24' E 032°18'0 0.1
2018-Apr-02 14:56N 31°24' E 032°18'0 0.2
2018-Apr-02 14:26N 31°24' E 032°18'1 2.1
2018-Apr-02 13:57N 31°24' E 032°19'3 6.5
2018-Apr-02 13:28N 31°27' E 032°17'2716.7
2018-Apr-02 11:52N 31°46' E 031°55'716.9
2018-Apr-02 11:29N 31°51' E 031°49'1017.1
2018-Apr-02 10:54N 31°53' E 031°38'7017.0
2018-Apr-02 06:46N 32°15' E 030°19'7317.0
2018-Apr-02 02:29N 32°36' E 028°57'6316.4
2018-Apr-01 22:40N 32°55' E 027°46'316.3
2018-Apr-01 22:30N 32°56' E 027°42'816.4
2018-Apr-01 22:00N 32°58' E 027°33'816.5
2018-Apr-01 21:30N 33°01' E 027°24'816.5
2018-Apr-01 21:00N 33°03' E 027°15'816.5
2018-Apr-01 20:30N 33°06' E 027°05'62616.8
2018-Mar-31 07:17N 36°17' E 015°00'413.9
2018-Mar-31 07:00N 36°18' E 014°56'1019.3
2018-Mar-31 06:30N 36°21' E 014°44'1223.9
2018-Mar-31 05:59N 36°26' E 014°30'612.2
2018-Mar-31 05:30N 36°28' E 014°23'1017.2
2018-Mar-31 04:56N 36°30' E 014°11'715.5
2018-Mar-31 04:29N 36°32' E 014°03'1018.8
2018-Mar-31 03:59N 36°34' E 013°52'816.5
2018-Mar-31 03:30N 36°37' E 013°42'917.0
2018-Mar-31 03:00N 36°40' E 013°32'816.3
2018-Mar-31 02:30N 36°41' E 013°22'916.7
2018-Mar-31 01:58N 36°44' E 013°12'1120.8
2018-Mar-31 01:26N 36°46' E 012°58'612.1
2018-Mar-31 00:59N 36°48' E 012°51'815.6
2018-Mar-31 00:30N 36°50' E 012°42'917.5
2018-Mar-31 00:00N 36°52' E 012°32'917.2
2018-Mar-30 23:29N 36°55' E 012°21'1019.9
2018-Mar-30 23:00N 36°58' E 012°10'917.0
2018-Mar-30 22:30N 37°02' E 012°00'814.2
2018-Mar-30 21:57N 37°05' E 011°52'817.1
2018-Mar-30 21:30N 37°09' E 011°43'46116.6
2018-Mar-29 17:45N 36°54' E 002°06'617.1
2018-Mar-29 17:24N 36°53' E 001°59'817.8
2018-Mar-29 16:57N 36°51' E 001°49'817.2
2018-Mar-29 16:30N 36°49' E 001°40'817.1
2018-Mar-29 16:00N 36°48' E 001°29'  
Track history (hours):
 
Tides and Currents Weather Stations Pressure Air Temp Water Temp Dewpoint Dewpoint Depression Visibility Wind Speed Wind Dir Waves Ship Positions

Duhail

Last reported at 2018-Apr-08 15:56 UTC. Time now 2018-Apr-27 05:07 UTC.
Position N 17°52' E 057°16'.
Warning: this ship's position is 18 days out of date.

Length 315 m; draft 9.5 m.

Type: Tanker. MMSI: 309599000.

Date/timePositionNaut miles runAvg speedWind from/ knotsBaromVisibWave heightAir tempDewpointWater temp
2018-Apr-08 15:56N 17°52' E 057°16'717.2
2018-Apr-08 15:30N 17°47' E 057°11'1117.1
2018-Apr-08 14:53N 17°39' E 057°03'716.9
2018-Apr-08 14:29N 17°35' E 056°58'917.0
2018-Apr-08 13:58N 17°29' E 056°51'817.1
2018-Apr-08 13:30N 17°24' E 056°44'817.1
2018-Apr-08 13:00N 17°19' E 056°37'917.0
2018-Apr-08 12:29N 17°13' E 056°30'918.6
2018-Apr-08 12:00N 17°07' E 056°23'  
2018-Apr-02 15:02N 31°24' E 032°18'0 0.1
2018-Apr-02 14:56N 31°24' E 032°18'0 0.2
2018-Apr-02 14:26N 31°24' E 032°18'1 2.1
2018-Apr-02 13:57N 31°24' E 032°19'3 6.5
2018-Apr-02 13:28N 31°27' E 032°17'2716.7
2018-Apr-02 11:52N 31°46' E 031°55'716.9
2018-Apr-02 11:29N 31°51' E 031°49'1017.1
2018-Apr-02 10:54N 31°53' E 031°38'7017.0
2018-Apr-02 06:46N 32°15' E 030°19'7317.0
2018-Apr-02 02:29N 32°36' E 028°57'6316.4
2018-Apr-01 22:40N 32°55' E 027°46'316.3
2018-Apr-01 22:30N 32°56' E 027°42'816.4
2018-Apr-01 22:00N 32°58' E 027°33'816.5
2018-Apr-01 21:30N 33°01' E 027°24'816.5
2018-Apr-01 21:00N 33°03' E 027°15'816.5
2018-Apr-01 20:30N 33°06' E 027°05'62616.8
2018-Mar-31 07:17N 36°17' E 015°00'413.9
2018-Mar-31 07:00N 36°18' E 014°56'1019.3
2018-Mar-31 06:30N 36°21' E 014°44'1223.9
2018-Mar-31 05:59N 36°26' E 014°30'612.2
2018-Mar-31 05:30N 36°28' E 014°23'1017.2
2018-Mar-31 04:56N 36°30' E 014°11'715.5
2018-Mar-31 04:29N 36°32' E 014°03'1018.8
2018-Mar-31 03:59N 36°34' E 013°52'816.5
2018-Mar-31 03:30N 36°37' E 013°42'917.0
2018-Mar-31 03:00N 36°40' E 013°32'816.3
2018-Mar-31 02:30N 36°41' E 013°22'916.7
2018-Mar-31 01:58N 36°44' E 013°12'1120.8
2018-Mar-31 01:26N 36°46' E 012°58'612.1
2018-Mar-31 00:59N 36°48' E 012°51'815.6
2018-Mar-31 00:30N 36°50' E 012°42'917.5
2018-Mar-31 00:00N 36°52' E 012°32'917.2
2018-Mar-30 23:29N 36°55' E 012°21'1019.9
2018-Mar-30 23:00N 36°58' E 012°10'917.0
2018-Mar-30 22:30N 37°02' E 012°00'814.2
2018-Mar-30 21:57N 37°05' E 011°52'817.1
2018-Mar-30 21:30N 37°09' E 011°43'46116.6
2018-Mar-29 17:45N 36°54' E 002°06'617.1
2018-Mar-29 17:24N 36°53' E 001°59'817.8
2018-Mar-29 16:57N 36°51' E 001°49'817.2
2018-Mar-29 16:30N 36°49' E 001°40'817.1
2018-Mar-29 16:00N 36°48' E 001°29'  

Dump ship's entire track history